Time;durP1;ratioP1;P1;durP2;ratioP2;P2;SDS_P1;SDS_P2;PMS_P1;PMS_P2;Temp;Humidity;BMP_temperature;BMP_pressure;BME280_temperature;BME280_humidity;BME280_pressure;Samples;Min_cycle;Max_cycle;Signal;HPM_P1;HPM_P2
2022/12/06 00:01:08;;;;;;;6.77;5.60;;;4.80;99.90;;;;;;4842050;29;20490;-55
2022/12/06 00:03:36;;;;;;;6.40;5.40;;;4.80;99.90;;;;;;4842411;29;20479;-53
2022/12/06 00:06:09;;;;;;;6.70;5.00;;;4.70;99.90;;;;;;4842968;29;20493;-55
2022/12/06 00:08:39;;;;;;;6.83;5.57;;;4.70;99.90;;;;;;4842752;29;20491;-54
2022/12/06 00:11:09;;;;;;;8.13;6.30;;;4.80;99.90;;;;;;4842826;29;20485;-52
2022/12/06 00:13:38;;;;;;;8.03;6.53;;;4.80;99.90;;;;;;4842585;29;20243;-52
2022/12/06 00:16:08;;;;;;;8.03;5.87;;;4.80;99.90;;;;;;4842659;29;20230;-55
2022/12/06 00:18:37;;;;;;;9.73;6.67;;;4.70;99.90;;;;;;4842293;29;20913;-53
2022/12/06 00:21:07;;;;;;;10.23;7.20;;;4.80;99.90;;;;;;4856354;29;20503;-54
2022/12/06 00:23:37;;;;;;;9.80;7.50;;;4.80;99.90;;;;;;4842238;29;20484;-53
2022/12/06 00:26:08;;;;;;;9.50;7.30;;;4.80;99.90;;;;;;4841979;29;20520;-54
2022/12/06 00:28:37;;;;;;;9.47;7.37;;;4.70;99.90;;;;;;4842381;29;21021;-53
2022/12/06 00:31:07;;;;;;;12.37;8.07;;;4.80;99.90;;;;;;4845835;29;20475;-54
2022/12/06 00:33:37;;;;;;;10.73;8.10;;;4.70;99.90;;;;;;4841647;29;20482;-55
2022/12/06 00:36:09;;;;;;;13.53;9.07;;;4.70;99.90;;;;;;4842059;29;20495;-54
2022/12/06 00:38:37;;;;;;;11.87;9.10;;;4.70;99.90;;;;;;4842133;29;20956;-54
2022/12/06 00:41:09;;;;;;;11.60;8.80;;;4.70;99.90;;;;;;4842442;29;20514;-52
2022/12/06 00:43:38;;;;;;;12.40;8.93;;;4.70;99.90;;;;;;4841972;29;20524;-55
2022/12/06 00:46:08;;;;;;;12.10;9.33;;;4.70;99.90;;;;;;4842208;29;20239;-55
2022/12/06 00:48:36;;;;;;;13.17;9.57;;;4.70;99.90;;;;;;4828593;29;20475;-55
2022/12/06 00:51:05;;;;;;;14.43;9.63;;;4.70;99.90;;;;;;4841839;29;20472;-54
2022/12/06 00:53:34;;;;;;;13.90;10.00;;;4.70;99.90;;;;;;4841624;29;20478;-54
2022/12/06 00:56:03;;;;;;;15.20;11.17;;;4.70;99.90;;;;;;4841842;29;20242;-52
2022/12/06 00:58:33;;;;;;;15.63;10.70;;;4.70;99.90;;;;;;4841832;29;20993;-55
2022/12/06 01:01:08;;;;;;;15.53;11.10;;;4.70;99.90;;;;;;4845131;29;20535;-54
2022/12/06 01:03:37;;;;;;;14.00;11.37;;;4.70;99.90;;;;;;4841729;29;20486;-53
2022/12/06 01:06:07;;;;;;;15.20;11.10;;;4.70;99.90;;;;;;4842144;29;20987;-54
2022/12/06 01:08:36;;;;;;;14.30;10.50;;;4.70;99.90;;;;;;4841936;29;20570;-56
2022/12/06 01:11:06;;;;;;;14.23;10.50;;;4.70;99.90;;;;;;4841567;29;20487;-53
2022/12/06 01:13:36;;;;;;;13.60;10.73;;;4.70;99.90;;;;;;4841920;29;20479;-53
2022/12/06 01:16:08;;;;;;;16.13;10.80;;;4.70;99.90;;;;;;4841861;29;20231;-55
2022/12/06 01:18:37;;;;;;;17.77;12.03;;;4.80;99.90;;;;;;4823827;29;20477;-54
2022/12/06 01:21:06;;;;;;;16.77;11.93;;;4.70;99.90;;;;;;4823793;29;20496;-55
2022/12/06 01:23:34;;;;;;;16.93;11.97;;;4.70;99.90;;;;;;4823607;29;20480;-55
2022/12/06 01:26:02;;;;;;;16.63;11.13;;;4.70;99.90;;;;;;4836698;29;20487;-54
2022/12/06 01:28:31;;;;;;;15.63;11.20;;;4.70;99.90;;;;;;4841815;29;20472;-55
2022/12/06 01:31:05;;;;;;;15.33;10.67;;;4.70;99.90;;;;;;4844868;29;20499;-54
2022/12/06 01:33:34;;;;;;;13.67;10.63;;;4.70;99.90;;;;;;4841218;29;20474;-54
2022/12/06 01:36:02;;;;;;;15.40;10.47;;;4.70;99.90;;;;;;4841835;29;20547;-54
2022/12/06 01:38:30;;;;;;;16.00;10.13;;;4.70;99.90;;;;;;4841464;29;20475;-54
2022/12/06 01:40:58;;;;;;;15.00;10.53;;;4.60;99.90;;;;;;4841489;29;20699;-54
2022/12/06 01:43:36;;;;;;;15.80;9.97;;;4.70;99.90;;;;;;4841744;29;20476;-53
2022/12/06 01:46:17;;;;;;;11.57;9.30;;;4.70;99.90;;;;;;4841439;29;20547;-54
2022/12/06 01:48:46;;;;;;;12.57;9.63;;;4.70;99.90;;;;;;4828276;29;20477;-55
2022/12/06 01:51:15;;;;;;;14.67;8.70;;;4.60;99.90;;;;;;4841516;29;20967;-54
2022/12/06 01:53:46;;;;;;;10.60;8.37;;;4.70;99.90;;;;;;4841739;29;22068;-54
2022/12/06 01:56:15;;;;;;;11.23;7.93;;;4.60;99.90;;;;;;4841522;29;20499;-54
2022/12/06 01:58:45;;;;;;;10.83;7.13;;;4.60;99.90;;;;;;4841364;29;20467;-54
2022/12/06 02:01:15;;;;;;;11.07;7.10;;;4.60;99.90;;;;;;4844740;29;20564;-54
2022/12/06 02:03:46;;;;;;;10.77;7.00;;;4.70;99.90;;;;;;4837937;29;20534;-54
2022/12/06 02:06:16;;;;;;;9.77;7.37;;;4.60;99.90;;;;;;4823265;29;20473;-53
2022/12/06 02:08:45;;;;;;;10.60;7.63;;;4.60;99.90;;;;;;4823068;29;20481;-55
2022/12/06 02:11:13;;;;;;;10.10;7.33;;;4.60;99.90;;;;;;4823458;29;20488;-54
2022/12/06 02:13:42;;;;;;;10.90;7.00;;;4.60;99.90;;;;;;4825414;29;20492;-55
2022/12/06 02:16:48;;;;;;;8.53;6.83;;;4.60;99.90;;;;;;4828207;29;20480;-54
2022/12/06 02:19:45;;;;;;;12.17;7.13;;;4.60;99.90;;;;;;4844271;29;20906;-53
2022/12/06 02:22:21;;;;;;;8.43;6.07;;;4.60;99.90;;;;;;4836616;29;20507;-55
2022/12/06 02:25:10;;;;;;;7.70;5.93;;;4.60;99.90;;;;;;4844033;29;20951;-54
2022/12/06 02:28:04;;;;;;;7.93;6.57;;;4.60;99.90;;;;;;4844214;29;20491;-53
2022/12/06 02:30:46;;;;;;;9.73;6.33;;;4.60;99.90;;;;;;4846259;29;20476;-55
2022/12/06 02:33:22;;;;;;;10.87;6.60;;;4.60;99.90;;;;;;4840862;29;20478;-54
2022/12/06 02:35:57;;;;;;;9.30;6.80;;;4.60;99.90;;;;;;4844029;29;20480;-53
2022/12/06 02:38:34;;;;;;;10.93;6.23;;;4.50;99.90;;;;;;4843050;29;20486;-53
2022/12/06 02:41:07;;;;;;;9.50;6.23;;;4.60;99.90;;;;;;4839659;29;20488;-54
2022/12/06 02:43:39;;;;;;;9.40;7.10;;;4.60;99.90;;;;;;4838208;29;20499;-52
2022/12/06 02:46:12;;;;;;;9.40;6.77;;;4.60;99.90;;;;;;4843455;29;20480;-53
2022/12/06 02:48:41;;;;;;;8.90;6.70;;;4.60;99.90;;;;;;4843880;29;20484;-53
2022/12/06 02:51:15;;;;;;;11.10;7.60;;;4.60;99.90;;;;;;4844403;29;20487;-54
2022/12/06 02:53:47;;;;;;;10.27;7.53;;;4.60;99.90;;;;;;4843833;29;20476;-54
2022/12/06 02:56:17;;;;;;;9.37;7.13;;;4.60;99.90;;;;;;4844132;29;20238;-53
2022/12/06 02:58:46;;;;;;;10.30;6.70;;;4.60;99.90;;;;;;4843919;29;20490;-54
2022/12/06 03:01:19;;;;;;;9.13;7.03;;;4.60;99.90;;;;;;4847269;29;20886;-54
2022/12/06 03:04:14;;;;;;;10.57;7.33;;;4.60;99.90;;;;;;4843680;29;20898;-54
2022/12/06 03:07:07;;;;;;;8.47;6.73;;;4.50;99.90;;;;;;4843939;29;20537;-55
2022/12/06 03:09:52;;;;;;;9.93;7.07;;;4.60;99.90;;;;;;4843493;29;20486;-53
2022/12/06 03:12:29;;;;;;;9.50;6.73;;;4.60;99.90;;;;;;4837391;29;20527;-56
2022/12/06 03:15:05;;;;;;;9.77;6.30;;;4.50;99.90;;;;;;4843836;29;20483;-54
2022/12/06 03:17:40;;;;;;;8.70;6.70;;;4.60;99.90;;;;;;4843291;29;20528;-54
2022/12/06 03:20:12;;;;;;;9.77;6.93;;;4.50;99.90;;;;;;4843777;29;20535;-54
2022/12/06 03:22:45;;;;;;;9.63;6.97;;;4.60;99.90;;;;;;4843268;29;20544;-54
2022/12/06 03:25:14;;;;;;;10.10;7.17;;;4.60;99.90;;;;;;4842592;29;20542;-54
2022/12/06 03:27:44;;;;;;;9.07;6.23;;;4.50;99.90;;;;;;4843075;29;20490;-54
2022/12/06 03:30:15;;;;;;;9.07;6.83;;;4.50;99.90;;;;;;4843224;29;20479;-54
2022/12/06 03:32:47;;;;;;;9.27;6.10;;;4.50;99.90;;;;;;4846564;29;20483;-55
2022/12/06 03:35:20;;;;;;;8.90;6.63;;;4.50;99.90;;;;;;4825243;29;20815;-54
2022/12/06 03:37:51;;;;;;;7.30;5.67;;;4.50;99.90;;;;;;4824780;29;20488;-53
2022/12/06 03:40:23;;;;;;;7.97;5.80;;;4.50;99.90;;;;;;4836350;29;20886;-53
2022/12/06 03:42:52;;;;;;;8.47;5.80;;;4.50;99.90;;;;;;4842932;29;20889;-54
2022/12/06 03:45:23;;;;;;;6.87;5.53;;;4.50;99.90;;;;;;4843017;29;20494;-54
2022/12/06 03:48:00;;;;;;;7.83;5.97;;;4.50;99.90;;;;;;4842813;29;20488;-54
2022/12/06 03:50:32;;;;;;;6.80;5.20;;;4.50;99.90;;;;;;4842853;29;20520;-54
2022/12/06 03:53:01;;;;;;;7.80;5.77;;;4.50;99.90;;;;;;4843265;29;20528;-54
2022/12/06 03:55:29;;;;;;;8.70;5.57;;;4.40;99.90;;;;;;4842640;29;20513;-53
2022/12/06 03:57:57;;;;;;;8.13;5.43;;;4.50;99.90;;;;;;4842794;29;20472;-54
2022/12/06 04:00:25;;;;;;;7.83;5.77;;;4.40;99.90;;;;;;4843763;29;20472;-54
2022/12/06 04:02:55;;;;;;;8.27;5.70;;;4.50;99.90;;;;;;4844422;29;20499;-54
2022/12/06 04:05:23;;;;;;;8.17;5.93;;;4.40;99.90;;;;;;4842762;29;20502;-54
2022/12/06 04:07:51;;;;;;;8.20;6.37;;;4.50;99.90;;;;;;4842958;29;20483;-55
2022/12/06 04:10:19;;;;;;;8.93;5.67;;;4.40;99.90;;;;;;4842519;29;20540;-55
2022/12/06 04:13:01;;;;;;;8.77;6.17;;;4.40;99.90;;;;;;4842652;29;20540;-53
2022/12/06 04:15:32;;;;;;;9.60;6.20;;;4.40;99.90;;;;;;4842759;29;20480;-54
2022/12/06 04:18:12;;;;;;;8.90;6.40;;;4.40;99.90;;;;;;4842647;29;20495;-55
2022/12/06 04:23:31;;;;;;;9.73;6.30;;;4.40;99.90;;;;;;4842566;29;20510;-55
2022/12/06 04:25:59;;;;;;;7.83;6.23;;;4.40;99.90;;;;;;4842558;29;20483;-56
2022/12/06 04:39:32;;;;;;;9.83;7.23;;;4.40;99.90;;;;;;4834754;29;20490;-52
2022/12/06 04:44:54;;;;;;;10.20;7.70;;;4.40;99.90;;;;;;4809140;29;20508;-54
2022/12/06 04:47:23;;;;;;;11.10;7.03;;;4.40;99.90;;;;;;4842356;29;21016;-53
2022/12/06 04:49:53;;;;;;;12.13;7.77;;;4.40;99.90;;;;;;4842134;29;20471;-53
2022/12/06 04:52:21;;;;;;;11.07;7.97;;;4.40;99.90;;;;;;4842111;29;20520;-54
2022/12/06 04:54:49;;;;;;;10.57;7.90;;;4.40;99.90;;;;;;4842138;29;20552;-53
2022/12/06 04:57:17;;;;;;;11.30;8.30;;;4.40;99.90;;;;;;4842123;29;20467;-55
2022/12/06 04:59:46;;;;;;;11.73;8.70;;;4.40;99.90;;;;;;4842094;29;20541;-53
2022/12/06 05:02:15;;;;;;;13.00;9.27;;;4.40;99.90;;;;;;4845153;29;20897;-53
2022/12/06 05:04:44;;;;;;;12.97;8.50;;;4.40;99.90;;;;;;4841779;29;20494;-54
2022/12/06 05:07:13;;;;;;;13.93;8.33;;;4.40;99.90;;;;;;4842299;29;20472;-53
2022/12/06 05:09:41;;;;;;;12.50;8.60;;;4.40;99.90;;;;;;4842065;29;21014;-54
2022/12/06 05:12:09;;;;;;;12.03;9.17;;;4.40;99.90;;;;;;4834715;29;20569;-53
2022/12/06 05:14:37;;;;;;;14.70;9.33;;;4.40;99.90;;;;;;4841756;29;20849;-55
2022/12/06 05:17:05;;;;;;;11.33;8.87;;;4.40;99.90;;;;;;4842176;29;20471;-54
2022/12/06 05:19:33;;;;;;;12.63;9.20;;;4.40;99.90;;;;;;4841682;29;20514;-54
2022/12/06 05:22:01;;;;;;;10.97;8.50;;;4.40;99.90;;;;;;4842067;29;20979;-53
2022/12/06 05:24:31;;;;;;;12.60;9.33;;;4.40;99.90;;;;;;4841536;29;20501;-53
2022/12/06 05:26:59;;;;;;;13.10;9.77;;;4.40;99.90;;;;;;4841263;29;20483;-53
2022/12/06 05:29:27;;;;;;;11.57;8.93;;;4.30;99.90;;;;;;4841810;29;20488;-54
2022/12/06 05:31:55;;;;;;;12.33;9.27;;;4.40;99.90;;;;;;4845045;29;20487;-55
2022/12/06 05:34:23;;;;;;;14.60;9.97;;;4.40;99.90;;;;;;4841596;29;20476;-54
2022/12/06 05:36:51;;;;;;;13.13;9.00;;;4.40;99.90;;;;;;4841781;29;20555;-53
2022/12/06 05:39:19;;;;;;;11.97;9.57;;;4.30;99.90;;;;;;4833031;29;20499;-53
2022/12/06 05:41:49;;;;;;;12.87;9.47;;;4.30;99.90;;;;;;4838122;29;20480;-53
2022/12/06 05:44:17;;;;;;;12.17;9.67;;;4.30;99.90;;;;;;4836332;29;20510;-54
2022/12/06 05:46:45;;;;;;;13.27;10.33;;;4.30;99.90;;;;;;4841447;29;20484;-54
2022/12/06 05:49:13;;;;;;;13.70;10.00;;;4.30;99.90;;;;;;4845142;29;20485;-53
2022/12/06 05:51:41;;;;;;;13.83;10.30;;;4.30;99.90;;;;;;4845223;29;20530;-54
2022/12/06 05:54:09;;;;;;;12.73;9.63;;;4.30;99.90;;;;;;4845377;29;20472;-53
2022/12/06 05:56:38;;;;;;;14.13;10.23;;;4.30;99.90;;;;;;4840561;29;20468;-53
2022/12/06 05:59:08;;;;;;;12.43;9.73;;;4.30;99.90;;;;;;4839568;29;20500;-54
2022/12/06 06:01:36;;;;;;;13.77;10.10;;;4.30;99.90;;;;;;4847878;29;20491;-54
2022/12/06 06:04:04;;;;;;;14.50;10.33;;;4.30;99.90;;;;;;4837018;29;20496;-53
2022/12/06 06:06:32;;;;;;;14.47;10.20;;;4.30;99.90;;;;;;4826249;29;20496;-54
2022/12/06 06:09:00;;;;;;;13.53;10.43;;;4.30;99.90;;;;;;4827871;29;20491;-56
2022/12/06 06:11:28;;;;;;;12.17;10.17;;;4.30;99.90;;;;;;4844806;29;20481;-53
2022/12/06 06:13:56;;;;;;;13.60;10.33;;;4.30;99.90;;;;;;4844782;29;20559;-53
2022/12/06 06:16:25;;;;;;;15.20;10.43;;;4.30;99.90;;;;;;4844896;29;20532;-53
2022/12/06 06:18:53;;;;;;;13.33;10.40;;;4.30;99.90;;;;;;4844804;29;20551;-54
2022/12/06 06:21:21;;;;;;;14.13;10.17;;;4.20;99.90;;;;;;4844277;29;20482;-55
2022/12/06 06:23:49;;;;;;;15.30;10.43;;;4.20;99.90;;;;;;4844219;29;20495;-55
2022/12/06 06:26:17;;;;;;;16.53;11.07;;;4.20;99.90;;;;;;4844662;29;20475;-54
2022/12/06 06:28:45;;;;;;;14.47;11.33;;;4.20;99.90;;;;;;4844596;29;21033;-54
2022/12/06 06:31:14;;;;;;;14.13;11.37;;;4.20;99.90;;;;;;4847907;29;20852;-54
2022/12/06 06:33:43;;;;;;;13.50;10.77;;;4.20;99.90;;;;;;4840740;29;20476;-54
2022/12/06 06:36:11;;;;;;;14.50;11.03;;;4.20;99.90;;;;;;4843902;29;20877;-55
2022/12/06 06:38:39;;;;;;;16.03;11.70;;;4.20;99.90;;;;;;4844109;29;20471;-53
2022/12/06 06:41:08;;;;;;;16.97;12.57;;;4.20;99.90;;;;;;4844091;29;20490;-54
2022/12/06 06:43:36;;;;;;;15.53;11.80;;;4.20;99.90;;;;;;4843840;29;20492;-54
2022/12/06 06:46:06;;;;;;;16.80;11.97;;;4.20;99.90;;;;;;4844085;29;20482;-53
2022/12/06 06:48:36;;;;;;;18.30;13.00;;;4.20;99.90;;;;;;4844040;29;20464;-54
2022/12/06 06:51:09;;;;;;;17.73;12.57;;;4.20;99.90;;;;;;4844139;29;20516;-53
2022/12/06 06:53:37;;;;;;;18.23;12.43;;;4.20;99.90;;;;;;4844163;29;20479;-54
2022/12/06 06:56:06;;;;;;;18.27;13.53;;;4.20;99.90;;;;;;4843976;29;20500;-53
2022/12/06 06:58:34;;;;;;;18.20;12.97;;;4.20;99.90;;;;;;4843809;29;20609;-53
2022/12/06 07:01:04;;;;;;;21.03;14.43;;;4.10;99.90;;;;;;4847143;29;20560;-53
2022/12/06 07:03:33;;;;;;;17.80;13.43;;;4.10;99.90;;;;;;4843755;29;20486;-54
2022/12/06 07:06:03;;;;;;;19.57;13.53;;;4.10;99.90;;;;;;4843833;29;20464;-55
2022/12/06 07:08:32;;;;;;;19.20;13.93;;;4.20;99.90;;;;;;4843774;29;20471;-55
2022/12/06 07:11:00;;;;;;;19.10;13.83;;;4.10;99.90;;;;;;4843960;29;20542;-54
2022/12/06 07:13:29;;;;;;;20.17;14.37;;;4.10;99.90;;;;;;4843468;29;20479;-54
2022/12/06 07:15:58;;;;;;;21.50;15.07;;;4.10;99.90;;;;;;4843569;29;20460;-52
2022/12/06 07:18:26;;;;;;;22.93;15.20;;;4.20;99.90;;;;;;4843544;29;20487;-54
2022/12/06 07:21:00;;;;;;;23.97;15.93;;;4.10;99.90;;;;;;4843625;29;20513;-53
2022/12/06 07:23:27;;;;;;;21.90;16.17;;;4.10;99.90;;;;;;4843324;29;20480;-52
2022/12/06 07:26:06;;;;;;;25.57;17.07;;;4.10;99.90;;;;;;4843086;29;20606;-55
2022/12/06 07:28:35;;;;;;;25.23;16.07;;;4.10;99.90;;;;;;4842806;29;20977;-53
2022/12/06 07:31:10;;;;;;;26.23;17.53;;;4.10;99.90;;;;;;4842885;29;20496;-54
2022/12/06 07:33:39;;;;;;;28.80;17.77;;;4.10;99.90;;;;;;4843301;29;20480;-54
2022/12/06 07:36:08;;;;;;;29.40;18.73;;;4.10;99.90;;;;;;4843327;29;20477;-55
2022/12/06 07:38:41;;;;;;;29.40;19.10;;;4.10;99.90;;;;;;4843067;29;20468;-52
2022/12/06 07:46:44;;;;;;;27.33;18.77;;;4.10;99.90;;;;;;4843195;29;20987;-54
2022/12/06 07:49:12;;;;;;;28.83;19.67;;;4.20;99.90;;;;;;4843087;29;20479;-53
2022/12/06 07:51:40;;;;;;;29.13;19.27;;;4.20;99.90;;;;;;4842893;29;20471;-54
2022/12/06 07:54:08;;;;;;;31.30;19.77;;;4.10;99.90;;;;;;4843034;29;20474;-54
2022/12/06 07:56:38;;;;;;;32.17;21.07;;;4.10;99.90;;;;;;4842667;29;20490;-53
2022/12/06 07:59:06;;;;;;;28.63;19.67;;;4.10;99.90;;;;;;4842680;29;20475;-53
2022/12/06 08:01:34;;;;;;;31.90;20.17;;;4.10;99.90;;;;;;4842394;29;20548;-55
2022/12/06 08:04:04;;;;;;;33.20;20.07;;;4.10;99.90;;;;;;4842823;29;20479;-54
2022/12/06 08:06:34;;;;;;;28.43;18.53;;;4.10;99.90;;;;;;4843001;29;20566;-53
2022/12/06 08:09:02;;;;;;;32.40;20.30;;;4.30;99.90;;;;;;4843002;29;20475;-53
2022/12/06 08:11:30;;;;;;;30.97;20.77;;;4.20;99.90;;;;;;4841832;29;20483;-54
2022/12/06 08:13:59;;;;;;;33.43;21.40;;;4.20;99.90;;;;;;4842815;29;20589;-54
2022/12/06 08:16:27;;;;;;;30.80;20.20;;;4.20;99.90;;;;;;4842332;29;20465;-55
2022/12/06 08:18:56;;;;;;;33.53;21.33;;;4.20;99.90;;;;;;4842560;29;20473;-53
2022/12/06 08:21:25;;;;;;;31.77;20.10;;;4.20;99.90;;;;;;4842555;29;20522;-54
2022/12/06 08:23:53;;;;;;;34.30;21.17;;;4.30;99.90;;;;;;4842225;29;20483;-54
2022/12/06 08:26:22;;;;;;;29.80;20.20;;;4.30;99.90;;;;;;4842163;29;20511;-54
2022/12/06 08:28:50;;;;;;;33.43;21.13;;;4.30;99.90;;;;;;4842086;29;20959;-55
2022/12/06 08:31:25;;;;;;;34.73;21.57;;;4.30;99.90;;;;;;4842127;29;21028;-55
2022/12/06 08:33:53;;;;;;;29.90;18.57;;;4.20;99.90;;;;;;4842550;29;20471;-53
2022/12/06 08:36:23;;;;;;;32.27;21.17;;;4.30;99.90;;;;;;4842686;29;20873;-53
2022/12/06 08:38:52;;;;;;;32.90;20.47;;;4.30;99.90;;;;;;4842820;29;20482;-55
2022/12/06 08:44:09;;;;;;;32.73;20.77;;;4.30;99.90;;;;;;4841705;29;20560;-55
2022/12/06 08:46:39;;;;;;;34.50;21.40;;;4.30;99.90;;;;;;4841960;29;20507;-53
2022/12/06 08:49:07;;;;;;;31.67;21.03;;;4.30;99.90;;;;;;4841856;29;21051;-54
2022/12/06 08:51:36;;;;;;;32.73;20.63;;;4.30;99.90;;;;;;4841967;29;20837;-53
2022/12/06 08:54:05;;;;;;;32.37;20.13;;;4.30;99.90;;;;;;4842176;29;20470;-54
2022/12/06 08:56:33;;;;;;;31.77;20.17;;;4.20;99.90;;;;;;4842096;29;20546;-54
2022/12/06 08:59:01;;;;;;;32.90;21.30;;;4.20;99.90;;;;;;4841891;29;20475;-55
2022/12/06 09:01:31;;;;;;;34.30;20.83;;;4.30;99.90;;;;;;4845264;29;20492;-53
2022/12/06 09:04:08;;;;;;;32.63;20.23;;;4.20;99.90;;;;;;4842159;29;20479;-55
2022/12/06 09:06:38;;;;;;;33.93;20.33;;;4.30;99.90;;;;;;4842034;29;20577;-54
2022/12/06 09:09:07;;;;;;;31.07;21.03;;;4.20;99.90;;;;;;4841895;29;20475;-52
2022/12/06 09:11:35;;;;;;;33.07;20.57;;;4.20;99.90;;;;;;4841919;29;20992;-53
2022/12/06 09:14:04;;;;;;;33.77;21.47;;;4.20;99.90;;;;;;4841769;29;20483;-54
2022/12/06 09:16:32;;;;;;;33.93;21.43;;;4.20;99.90;;;;;;4841611;29;20483;-53
2022/12/06 09:19:00;;;;;;;34.10;21.37;;;4.20;99.90;;;;;;4841967;29;20483;-54
2022/12/06 09:21:31;;;;;;;34.00;20.67;;;4.20;99.90;;;;;;4843089;29;20487;-54
2022/12/06 09:23:59;;;;;;;35.83;22.33;;;4.10;99.90;;;;;;4845600;29;20470;-54
2022/12/06 09:26:28;;;;;;;37.57;22.23;;;4.10;99.90;;;;;;4845430;29;20492;-54
2022/12/06 09:28:57;;;;;;;34.23;21.83;;;4.10;99.90;;;;;;4845562;29;20483;-53
2022/12/06 09:31:26;;;;;;;34.93;22.60;;;4.10;99.90;;;;;;4848713;29;20492;-54
2022/12/06 09:33:54;;;;;;;35.10;21.57;;;4.10;99.90;;;;;;4845456;29;20476;-54
2022/12/06 09:36:25;;;;;;;32.80;21.40;;;4.10;99.90;;;;;;4845368;29;20482;-53
2022/12/06 09:38:59;;;;;;;32.00;21.37;;;4.10;99.90;;;;;;4845573;29;20510;-53
2022/12/06 09:42:01;;;;;;;31.37;20.87;;;4.10;99.90;;;;;;4845158;29;20873;-54
2022/12/06 09:44:50;;;;;;;32.20;21.03;;;4.10;99.90;;;;;;4826464;29;20500;-54
2022/12/06 09:47:30;;;;;;;29.73;19.30;;;4.10;99.90;;;;;;4826811;29;20480;-51
2022/12/06 09:50:07;;;;;;;28.07;19.03;;;4.10;99.90;;;;;;4827017;29;20483;-54
2022/12/06 09:53:00;;;;;;;30.93;19.57;;;4.10;99.90;;;;;;4826765;29;20484;-53
2022/12/06 09:55:44;;;;;;;28.53;19.17;;;4.10;99.90;;;;;;4835692;29;20876;-52
2022/12/06 09:58:23;;;;;;;28.90;18.90;;;4.10;99.90;;;;;;4837796;29;20502;-51
2022/12/06 10:00:58;;;;;;;28.67;19.40;;;4.20;99.90;;;;;;4848434;29;20481;-54
2022/12/06 10:03:47;;;;;;;27.50;18.87;;;4.20;99.90;;;;;;4844972;29;20485;-55
2022/12/06 10:06:18;;;;;;;26.37;17.70;;;4.20;99.90;;;;;;4845065;29;20557;-53
2022/12/06 10:09:11;;;;;;;28.87;19.40;;;4.20;99.90;;;;;;4844785;29;20460;-54
2022/12/06 10:11:53;;;;;;;29.53;20.03;;;4.20;99.90;;;;;;4841101;29;20836;-53
2022/12/06 10:14:38;;;;;;;26.73;18.53;;;4.20;99.90;;;;;;4830870;29;20524;-53
2022/12/06 10:17:17;;;;;;;26.70;18.77;;;4.20;99.90;;;;;;4844852;29;20487;-52
2022/12/06 10:19:55;;;;;;;27.57;18.80;;;4.20;99.90;;;;;;4844442;29;20483;-53
2022/12/06 10:22:32;;;;;;;25.43;18.17;;;4.30;99.90;;;;;;4844893;29;20964;-54
2022/12/06 10:25:08;;;;;;;24.07;17.33;;;4.20;99.90;;;;;;4844794;29;20492;-53
2022/12/06 10:27:39;;;;;;;27.60;18.47;;;4.30;99.90;;;;;;4844620;29;20471;-51
2022/12/06 10:30:10;;;;;;;22.77;16.73;;;4.30;99.90;;;;;;4844483;29;20491;-52
2022/12/06 10:32:53;;;;;;;22.77;15.83;;;4.30;99.90;;;;;;4847125;29;20491;-52
2022/12/06 10:35:42;;;;;;;22.93;17.10;;;4.30;99.90;;;;;;4825932;29;20485;-53
2022/12/06 10:38:19;;;;;;;22.47;15.83;;;4.30;99.90;;;;;;4824015;29;20500;-55
2022/12/06 10:40:57;;;;;;;21.37;15.47;;;4.30;99.90;;;;;;4840068;29;20479;-53
2022/12/06 10:43:35;;;;;;;19.23;14.40;;;4.30;99.90;;;;;;4844101;29;20480;-53
2022/12/06 10:49:02;;;;;;;20.80;14.67;;;4.30;99.90;;;;;;4844113;29;20472;-53
2022/12/06 10:51:37;;;;;;;19.23;14.13;;;4.40;99.90;;;;;;4843966;29;20546;-55
2022/12/06 10:54:20;;;;;;;19.67;13.83;;;4.40;99.90;;;;;;4844408;29;20485;-54
2022/12/06 10:56:51;;;;;;;18.93;13.80;;;4.40;99.90;;;;;;4841297;29;20533;-52
2022/12/06 10:59:31;;;;;;;17.40;12.50;;;4.40;99.90;;;;;;4844065;29;20475;-54
2022/12/06 11:02:10;;;;;;;17.50;13.97;;;4.40;99.90;;;;;;4843389;29;20495;-52
2022/12/06 11:04:39;;;;;;;16.13;11.97;;;4.40;99.90;;;;;;4843710;29;20472;-53
2022/12/06 11:07:15;;;;;;;15.73;11.60;;;4.40;99.90;;;;;;4844129;29;20510;-53
2022/12/06 11:09:48;;;;;;;14.33;11.73;;;4.40;99.90;;;;;;4843631;29;20474;-53
2022/12/06 11:12:23;;;;;;;14.63;11.80;;;4.40;99.90;;;;;;4837223;29;20978;-53
2022/12/06 11:15:12;;;;;;;15.17;12.93;;;4.40;99.90;;;;;;4843713;29;20553;-53
2022/12/06 11:17:46;;;;;;;15.23;11.77;;;4.40;99.90;;;;;;4831178;29;20800;-54
2022/12/06 11:20:24;;;;;;;14.83;11.80;;;4.40;99.90;;;;;;4840643;29;20882;-53
2022/12/06 11:23:04;;;;;;;14.67;11.83;;;4.40;99.90;;;;;;4841720;29;20473;-53
2022/12/06 11:25:41;;;;;;;14.73;12.13;;;4.40;99.90;;;;;;4843694;29;20568;-54
2022/12/06 11:28:22;;;;;;;14.97;12.33;;;4.40;99.90;;;;;;4835523;29;20480;-53
2022/12/06 11:30:54;;;;;;;13.23;10.93;;;4.40;99.90;;;;;;4845180;29;20485;-52
2022/12/06 11:33:33;;;;;;;15.30;11.80;;;4.40;99.90;;;;;;4843591;29;20490;-54
2022/12/06 11:36:05;;;;;;;15.73;12.03;;;4.30;99.90;;;;;;4843161;29;20526;-54
2022/12/06 11:38:34;;;;;;;16.40;13.10;;;4.30;99.90;;;;;;4832928;29;20459;-53
2022/12/06 11:41:05;;;;;;;16.90;13.23;;;4.30;99.90;;;;;;4830603;29;20487;-53
2022/12/06 11:43:34;;;;;;;20.43;15.80;;;4.30;99.90;;;;;;4829530;29;20483;-53
2022/12/06 11:46:05;;;;;;;21.83;16.20;;;4.30;99.90;;;;;;4834427;29;20542;-52
2022/12/06 11:48:35;;;;;;;24.37;17.47;;;4.20;99.90;;;;;;4836414;29;20469;-53
2022/12/06 11:51:13;;;;;;;21.53;17.40;;;4.20;99.90;;;;;;4842777;29;20483;-52
2022/12/06 11:53:47;;;;;;;24.03;18.03;;;4.20;99.90;;;;;;4838721;29;20477;-52
2022/12/06 11:56:23;;;;;;;24.07;18.07;;;4.20;99.90;;;;;;4839383;29;20482;-52
2022/12/06 11:59:14;;;;;;;23.40;17.90;;;4.20;99.90;;;;;;4841190;29;20498;-52
2022/12/06 12:01:45;;;;;;;23.70;17.00;;;4.20;99.90;;;;;;4823352;29;20488;-52
2022/12/06 12:04:25;;;;;;;19.03;15.60;;;4.20;99.90;;;;;;4820982;29;20999;-52
2022/12/06 12:07:09;;;;;;;20.30;15.63;;;4.20;99.90;;;;;;5066978;28;21235;-55
2022/12/06 12:09:48;;;;;;;20.20;15.83;;;4.20;99.90;;;;;;5067337;28;20468;-53
2022/12/06 12:12:21;;;;;;;18.83;15.70;;;4.20;99.90;;;;;;5063660;28;20490;-57
2022/12/06 12:14:54;;;;;;;18.17;15.70;;;4.20;99.90;;;;;;5080394;28;20875;-55
2022/12/06 12:17:28;;;;;;;18.33;15.73;;;4.30;99.90;;;;;;5076339;28;20472;-56
2022/12/06 12:20:00;;;;;;;19.03;15.33;;;4.40;99.90;;;;;;5072383;28;20476;-55
2022/12/06 12:22:35;;;;;;;16.53;13.87;;;4.40;99.90;;;;;;5067317;28;20472;-54
2022/12/06 12:25:22;;;;;;;16.30;14.43;;;4.50;99.90;;;;;;5075178;28;21733;-54
2022/12/06 12:27:52;;;;;;;17.33;14.37;;;4.50;99.90;;;;;;5074338;28;20579;-55
2022/12/06 12:30:26;;;;;;;16.93;13.80;;;4.50;99.90;;;;;;5070361;28;21060;-53
2022/12/06 12:33:13;;;;;;;15.23;13.20;;;4.50;99.90;;;;;;5057834;28;20465;-55
2022/12/06 12:35:43;;;;;;;14.80;12.37;;;4.50;99.90;;;;;;5056302;28;20888;-55
2022/12/06 12:38:27;;;;;;;12.70;11.33;;;4.50;99.90;;;;;;5056012;28;20472;-53
2022/12/06 12:40:58;;;;;;;12.87;11.37;;;4.50;99.90;;;;;;5060543;28;20852;-54
2022/12/06 12:43:30;;;;;;;12.87;10.13;;;4.50;99.90;;;;;;5059874;28;20453;-53
2022/12/06 12:46:17;;;;;;;11.27;9.63;;;4.50;99.90;;;;;;5063038;28;20470;-55
2022/12/06 12:48:47;;;;;;;11.37;9.83;;;4.50;99.90;;;;;;5056961;28;20461;-55
2022/12/06 12:51:31;;;;;;;12.07;9.90;;;4.60;99.90;;;;;;5061737;28;20874;-55
2022/12/06 12:54:03;;;;;;;10.13;9.03;;;4.60;99.90;;;;;;5060303;28;20853;-54
2022/12/06 12:56:34;;;;;;;9.63;8.63;;;4.60;99.90;;;;;;5061454;28;20841;-54
2022/12/06 12:59:06;;;;;;;8.53;7.63;;;4.60;99.90;;;;;;5058148;28;20465;-54
2022/12/06 13:01:42;;;;;;;7.43;6.67;;;4.70;99.90;;;;;;5057432;28;20535;-55
2022/12/06 13:04:27;;;;;;;6.50;5.77;;;4.70;99.90;;;;;;5061759;28;20476;-54
2022/12/06 13:06:59;;;;;;;6.17;5.20;;;4.70;99.90;;;;;;5059930;28;20484;-54
2022/12/06 13:09:32;;;;;;;5.97;5.10;;;4.70;99.90;;;;;;5059050;28;20794;-54
2022/12/06 13:12:04;;;;;;;5.17;4.50;;;4.60;99.90;;;;;;5055625;28;20470;-56
2022/12/06 13:14:37;;;;;;;5.03;4.50;;;4.70;99.90;;;;;;5059163;28;20467;-55
2022/12/06 13:17:08;;;;;;;5.27;4.60;;;4.70;99.90;;;;;;5050657;28;21037;-55
2022/12/06 13:19:41;;;;;;;5.40;4.80;;;4.70;99.90;;;;;;5044127;28;20531;-56
2022/12/06 13:22:16;;;;;;;5.70;4.67;;;4.70;99.90;;;;;;5042664;28;20822;-56
2022/12/06 13:24:50;;;;;;;5.87;4.73;;;4.70;99.90;;;;;;5043032;28;20479;-54
2022/12/06 13:27:23;;;;;;;5.40;4.07;;;4.70;99.90;;;;;;5041994;28;20471;-57
2022/12/06 13:29:57;;;;;;;5.43;4.03;;;4.70;99.90;;;;;;5042519;28;20955;-55
2022/12/06 13:32:32;;;;;;;4.87;3.90;;;4.70;99.90;;;;;;5043511;28;20907;-54
2022/12/06 13:35:04;;;;;;;5.27;4.20;;;4.70;99.90;;;;;;5046668;28;20849;-56
2022/12/06 13:37:42;;;;;;;5.50;3.90;;;4.70;99.90;;;;;;5045125;28;20510;-55